Time;durP1;ratioP1;P1;durP2;ratioP2;P2;SDS_P1;SDS_P2;PMS_P1;PMS_P2;Temp;Humidity;BMP_temperature;BMP_pressure;BME280_temperature;BME280_humidity;BME280_pressure;Samples;Min_cycle;Max_cycle;Signal;HPM_P1;HPM_P2
2022/07/02 00:00:05;;;;;;;2.72;1.45;;;;;;;;;;5100724;28;20119;-78
2022/07/02 00:02:44;;;;;;;2.92;1.60;;;;;;;;;;5118301;28;20069;-78
2022/07/02 00:05:14;;;;;;;2.35;1.58;;;;;;;;;;5117409;28;20172;-78
2022/07/02 00:07:42;;;;;;;2.53;1.50;;;;;;;;;;5100281;28;20104;-78
2022/07/02 00:10:08;;;;;;;1.73;1.30;;;;;;;;;;5119091;27;20031;-78
2022/07/02 00:12:35;;;;;;;2.58;1.70;;;;;;;;;;5121071;27;20034;-78
2022/07/02 00:15:00;;;;;;;2.28;1.10;;;;;;;;;;5137902;27;20031;-78
2022/07/02 00:17:26;;;;;;;2.20;1.30;;;;;;;;;;5106209;28;20035;-78
2022/07/02 00:19:53;;;;;;;2.35;1.42;;;;;;;;;;5123050;28;20451;-78
2022/07/02 00:22:20;;;;;;;2.55;1.50;;;;;;;;;;5106680;28;20027;-78
2022/07/02 00:24:45;;;;;;;2.45;1.23;;;;;;;;;;5105799;28;20032;-78
2022/07/02 00:27:13;;;;;;;2.80;1.70;;;;;;;;;;5105405;28;20038;-78
2022/07/02 00:29:44;;;;;;;4.53;1.60;;;;;;;;;;5125484;28;20090;-78
2022/07/02 00:32:10;;;;;;;3.55;1.33;;;;;;;;;;5124891;28;20117;-78
2022/07/02 00:34:38;;;;;;;2.83;1.30;;;;;;;;;;5119645;27;20132;-78
2022/07/02 00:37:08;;;;;;;5.97;1.45;;;;;;;;;;5126947;27;20043;-78
2022/07/02 00:39:35;;;;;;;2.75;1.55;;;;;;;;;;5147432;27;20087;-78
2022/07/02 00:42:03;;;;;;;1.75;1.42;;;;;;;;;;5129441;27;20042;-78
2022/07/02 00:44:33;;;;;;;2.75;1.30;;;;;;;;;;5128745;27;20119;-78
2022/07/02 00:47:05;;;;;;;2.33;1.50;;;;;;;;;;5137410;27;20035;-78
2022/07/02 00:49:32;;;;;;;3.08;1.63;;;;;;;;;;5143802;27;20449;-78
2022/07/02 00:52:02;;;;;;;5.00;1.50;;;;;;;;;;5137196;27;20036;-78
2022/07/02 00:54:28;;;;;;;1.50;1.40;;;;;;;;;;5120016;27;20043;-78
2022/07/02 00:56:54;;;;;;;4.20;1.35;;;;;;;;;;5137191;27;20130;-78
2022/07/02 00:59:24;;;;;;;1.77;1.25;;;;;;;;;;5137071;27;20027;-78
2022/07/02 01:01:51;;;;;;;5.57;1.40;;;;;;;;;;5119591;27;20122;-78
2022/07/02 01:04:19;;;;;;;5.13;1.85;;;;;;;;;;5119696;27;20088;-78
2022/07/02 01:06:48;;;;;;;4.03;1.67;;;;;;;;;;5136320;27;20480;-78
2022/07/02 01:12:00;;;;;;;8.10;1.40;;;;;;;;;;5135945;27;20072;-78
2022/07/02 01:14:29;;;;;;;2.75;1.60;;;;;;;;;;5118702;27;20042;-78
2022/07/02 01:16:55;;;;;;;1.60;1.38;;;;;;;;;;5118804;27;20577;-78
2022/07/02 01:19:23;;;;;;;2.65;1.50;;;;;;;;;;5124867;27;20031;-78
2022/07/02 01:22:10;;;;;;;2.60;1.58;;;;;;;;;;5143038;27;20045;-78
2022/07/02 01:24:38;;;;;;;2.47;1.73;;;;;;;;;;5124702;27;20614;-78
2022/07/02 01:27:04;;;;;;;3.47;1.58;;;;;;;;;;5144041;27;20039;-78
2022/07/02 01:29:31;;;;;;;6.63;1.50;;;;;;;;;;5126976;27;20030;-79
2022/07/02 01:31:58;;;;;;;2.40;1.40;;;;;;;;;;5127405;27;20102;-78
2022/07/02 01:34:24;;;;;;;2.90;1.40;;;;;;;;;;5144369;27;20039;-79
2022/07/02 01:36:49;;;;;;;1.23;1.15;;;;;;;;;;5108107;27;20121;-78
2022/07/02 01:39:16;;;;;;;4.75;1.50;;;;;;;;;;5116407;28;20088;-78
2022/07/02 01:41:42;;;;;;;1.95;1.27;;;;;;;;;;5118787;28;20035;-78
2022/07/02 01:44:08;;;;;;;3.00;1.38;;;;;;;;;;5099671;28;20381;-78
2022/07/02 01:46:36;;;;;;;2.63;1.67;;;;;;;;;;5116220;28;20459;-78
2022/07/02 01:49:02;;;;;;;2.05;1.40;;;;;;;;;;5098919;28;20036;-78
2022/07/02 01:51:29;;;;;;;2.28;1.40;;;;;;;;;;5117797;28;20084;-78
2022/07/02 01:53:55;;;;;;;4.18;1.20;;;;;;;;;;5099948;28;20047;-78
2022/07/02 01:56:22;;;;;;;1.73;1.30;;;;;;;;;;5116160;28;20040;-78
2022/07/02 01:58:48;;;;;;;5.32;1.55;;;;;;;;;;5117023;28;20031;-79
2022/07/02 02:01:13;;;;;;;4.22;1.48;;;;;;;;;;5116749;28;20077;-78
2022/07/02 02:03:40;;;;;;;3.10;1.52;;;;;;;;;;5116682;28;20039;-78
2022/07/02 02:06:06;;;;;;;2.97;1.40;;;;;;;;;;5107954;28;20446;-78
2022/07/02 02:08:33;;;;;;;3.17;1.30;;;;;;;;;;5099631;28;20035;-79
2022/07/02 02:10:59;;;;;;;2.08;1.13;;;;;;;;;;5100829;28;20404;-79
2022/07/02 02:13:28;;;;;;;2.25;1.30;;;;;;;;;;5101472;28;20028;-79
2022/07/02 02:15:55;;;;;;;2.17;1.40;;;;;;;;;;5100597;28;20032;-78
2022/07/02 02:18:20;;;;;;;2.63;1.52;;;;;;;;;;5100523;28;20122;-79
2022/07/02 02:20:47;;;;;;;5.20;1.27;;;;;;;;;;5117166;28;20123;-79
2022/07/02 02:23:13;;;;;;;3.33;1.40;;;;;;;;;;5100067;28;20054;-79
2022/07/02 02:25:39;;;;;;;1.65;1.40;;;;;;;;;;5100008;28;20027;-79
2022/07/02 02:28:06;;;;;;;2.85;1.42;;;;;;;;;;5117947;28;20031;-79
2022/07/02 02:30:34;;;;;;;5.38;1.40;;;;;;;;;;5117673;28;20025;-79
2022/07/02 02:33:02;;;;;;;3.17;1.40;;;;;;;;;;5128632;28;20040;-79
2022/07/02 02:35:28;;;;;;;3.60;1.27;;;;;;;;;;5117710;27;20023;-79
2022/07/02 02:37:56;;;;;;;2.00;1.38;;;;;;;;;;5147643;28;20058;-79
2022/07/02 02:40:21;;;;;;;8.25;1.30;;;;;;;;;;5130163;28;20091;-80
2022/07/02 02:42:47;;;;;;;7.57;1.52;;;;;;;;;;5131206;28;20034;-80
2022/07/02 02:45:12;;;;;;;9.05;1.73;;;;;;;;;;5129442;28;20087;-80
2022/07/02 02:47:41;;;;;;;4.47;1.45;;;;;;;;;;5147859;27;20035;-80
2022/07/02 02:50:07;;;;;;;2.83;1.40;;;;;;;;;;5147992;27;20036;-79
2022/07/02 02:52:34;;;;;;;4.40;1.60;;;;;;;;;;5147836;27;20046;-79
2022/07/02 02:55:00;;;;;;;3.28;1.58;;;;;;;;;;5148182;28;20039;-79
2022/07/02 02:57:27;;;;;;;4.13;1.50;;;;;;;;;;5132993;27;20031;-79
2022/07/02 02:59:53;;;;;;;4.80;2.03;;;;;;;;;;5135591;27;20070;-79
2022/07/02 03:02:20;;;;;;;4.28;1.38;;;;;;;;;;5135014;27;20043;-79
2022/07/02 03:04:45;;;;;;;5.03;1.23;;;;;;;;;;5135754;27;20074;-79
2022/07/02 03:07:10;;;;;;;3.22;1.40;;;;;;;;;;5152604;27;20034;-79
2022/07/02 03:09:38;;;;;;;3.55;1.60;;;;;;;;;;5134960;27;20563;-79
2022/07/02 03:12:07;;;;;;;2.60;1.52;;;;;;;;;;5137968;27;20033;-79
2022/07/02 03:14:33;;;;;;;3.38;1.48;;;;;;;;;;5146793;27;20039;-79
2022/07/02 03:16:59;;;;;;;4.65;1.67;;;;;;;;;;5131919;27;20052;-79
2022/07/02 03:19:24;;;;;;;3.35;1.60;;;;;;;;;;5136962;27;20035;-79
2022/07/02 03:21:51;;;;;;;3.53;1.48;;;;;;;;;;5138071;27;20080;-79
2022/07/02 03:24:16;;;;;;;2.65;1.40;;;;;;;;;;5136481;27;20042;-79
2022/07/02 03:26:42;;;;;;;2.03;1.35;;;;;;;;;;5137267;27;20440;-79
2022/07/02 03:29:10;;;;;;;4.35;1.42;;;;;;;;;;5136459;27;20027;-79
2022/07/02 03:31:36;;;;;;;7.47;1.55;;;;;;;;;;5154709;27;20049;-79
2022/07/02 03:34:01;;;;;;;5.40;1.60;;;;;;;;;;5137331;27;20098;-80
2022/07/02 03:36:27;;;;;;;4.03;1.50;;;;;;;;;;5125375;27;20070;-79
2022/07/02 03:38:52;;;;;;;2.33;1.42;;;;;;;;;;5123781;27;20031;-79
2022/07/02 03:41:17;;;;;;;6.93;1.83;;;;;;;;;;5123488;27;20040;-79
2022/07/02 03:43:43;;;;;;;3.47;1.50;;;;;;;;;;5123428;27;20035;-79
2022/07/02 03:46:08;;;;;;;2.00;1.40;;;;;;;;;;5140762;27;20108;-79
2022/07/02 03:48:34;;;;;;;3.20;1.50;;;;;;;;;;5140162;27;20028;-79
2022/07/02 03:51:00;;;;;;;2.88;1.80;;;;;;;;;;5122483;27;20532;-80
2022/07/02 03:53:29;;;;;;;5.10;1.50;;;;;;;;;;5140721;27;20056;-80
2022/07/02 03:55:55;;;;;;;5.95;1.63;;;;;;;;;;5123057;27;20041;-80
2022/07/02 03:58:21;;;;;;;4.60;1.70;;;;;;;;;;5124067;27;20125;-80
2022/07/02 04:00:46;;;;;;;5.03;1.83;;;;;;;;;;5124395;27;20374;-80
2022/07/02 04:03:12;;;;;;;5.10;1.27;;;;;;;;;;5123982;27;20122;-80
2022/07/02 04:05:37;;;;;;;1.60;1.40;;;;;;;;;;5123513;27;20129;-80
2022/07/02 04:08:03;;;;;;;7.35;1.70;;;;;;;;;;5140283;27;20482;-80
2022/07/02 04:10:29;;;;;;;5.78;1.67;;;;;;;;;;5141345;27;20040;-80
2022/07/02 04:12:55;;;;;;;4.53;1.30;;;;;;;;;;5122423;27;20027;-80
2022/07/02 04:15:20;;;;;;;8.18;1.85;;;;;;;;;;5141639;27;20482;-80
2022/07/02 04:17:46;;;;;;;2.92;1.30;;;;;;;;;;5123436;27;20043;-80
2022/07/02 04:20:11;;;;;;;2.25;1.20;;;;;;;;;;5145756;27;20035;-80
2022/07/02 04:22:38;;;;;;;4.20;1.83;;;;;;;;;;5152058;27;20035;-80
2022/07/02 04:25:04;;;;;;;4.32;1.67;;;;;;;;;;5132777;27;20053;-80
2022/07/02 04:27:31;;;;;;;1.52;1.40;;;;;;;;;;5150288;27;20092;-80
2022/07/02 04:29:57;;;;;;;3.55;1.48;;;;;;;;;;5131966;27;20039;-80
2022/07/02 04:32:22;;;;;;;2.33;1.58;;;;;;;;;;5132344;27;20119;-80
2022/07/02 04:34:50;;;;;;;2.42;1.58;;;;;;;;;;5133715;27;20038;-80
2022/07/02 04:37:16;;;;;;;3.38;1.70;;;;;;;;;;5134088;27;20500;-80
2022/07/02 04:39:42;;;;;;;2.92;1.50;;;;;;;;;;5151553;27;20075;-80
2022/07/02 04:42:08;;;;;;;7.55;1.73;;;;;;;;;;5134509;27;20035;-80
2022/07/02 04:44:39;;;;;;;2.88;1.75;;;;;;;;;;5131632;27;20039;-80
2022/07/02 04:47:06;;;;;;;9.55;2.35;;;;;;;;;;5135200;27;20066;-80
2022/07/02 04:49:32;;;;;;;2.92;1.80;;;;;;;;;;5135827;27;20027;-80
2022/07/02 04:51:59;;;;;;;3.58;1.90;;;;;;;;;;5152232;27;20056;-80
2022/07/02 04:54:24;;;;;;;3.15;1.90;;;;;;;;;;5152066;27;20077;-80
2022/07/02 04:56:50;;;;;;;3.03;1.92;;;;;;;;;;5123654;27;20035;-80
2022/07/02 04:59:16;;;;;;;3.92;2.20;;;;;;;;;;5154170;27;20030;-80
2022/07/02 05:01:44;;;;;;;8.02;2.38;;;;;;;;;;5151544;27;20030;-80
2022/07/02 05:04:10;;;;;;;2.85;2.00;;;;;;;;;;5124006;27;20039;-80
2022/07/02 05:06:37;;;;;;;3.72;2.25;;;;;;;;;;5106124;28;20031;-80
2022/07/02 05:09:03;;;;;;;3.35;2.20;;;;;;;;;;5109136;27;20035;-78
2022/07/02 05:11:29;;;;;;;5.00;2.20;;;;;;;;;;5111124;28;20055;-80
2022/07/02 05:13:55;;;;;;;3.92;2.45;;;;;;;;;;5100707;28;20039;-80
2022/07/02 05:16:21;;;;;;;3.15;2.55;;;;;;;;;;5117762;28;20042;-80
2022/07/02 05:18:47;;;;;;;8.30;2.85;;;;;;;;;;5100576;28;20087;-80
2022/07/02 05:21:13;;;;;;;3.63;2.95;;;;;;;;;;5116762;28;20039;-80
2022/07/02 05:23:39;;;;;;;4.60;2.63;;;;;;;;;;5117479;28;20178;-81
2022/07/02 05:26:05;;;;;;;5.30;2.80;;;;;;;;;;5119307;28;20132;-83
2022/07/02 05:28:31;;;;;;;11.00;4.50;;;;;;;;;;5104111;28;20036;-79
2022/07/02 05:30:57;;;;;;;10.73;3.33;;;;;;;;;;5103994;28;20043;-81
2022/07/02 05:33:23;;;;;;;12.85;3.55;;;;;;;;;;5120287;28;20043;-81
2022/07/02 05:35:49;;;;;;;6.88;3.20;;;;;;;;;;5111305;27;20099;-80
2022/07/02 05:38:15;;;;;;;4.90;3.17;;;;;;;;;;5127897;27;20043;-80
2022/07/02 05:40:42;;;;;;;4.97;3.30;;;;;;;;;;5142826;27;20038;-80
2022/07/02 05:43:08;;;;;;;8.88;3.90;;;;;;;;;;5144850;27;20027;-82
2022/07/02 05:45:33;;;;;;;4.88;3.42;;;;;;;;;;5129893;27;20034;-83
2022/07/02 05:48:01;;;;;;;9.57;3.22;;;;;;;;;;5139632;27;20063;-80
2022/07/02 05:50:27;;;;;;;7.95;4.22;;;;;;;;;;5121912;27;20031;-80
2022/07/02 05:52:54;;;;;;;5.45;3.60;;;;;;;;;;5123670;27;20035;-80
2022/07/02 05:55:19;;;;;;;7.40;3.80;;;;;;;;;;5123314;27;20038;-83
2022/07/02 05:57:45;;;;;;;8.18;3.55;;;;;;;;;;5119862;27;20424;-78
2022/07/02 06:00:11;;;;;;;9.48;3.95;;;;;;;;;;5118671;27;20031;-78
2022/07/02 06:02:37;;;;;;;8.40;3.60;;;;;;;;;;5119243;27;20050;-78
2022/07/02 06:07:48;;;;;;;6.18;3.90;;;;;;;;;;5116758;27;20027;-78
2022/07/02 06:10:19;;;;;;;6.03;3.67;;;;;;;;;;5114540;28;20030;-78
2022/07/02 06:12:51;;;;;;;5.38;3.70;;;;;;;;;;5114303;28;20035;-78
2022/07/02 06:15:17;;;;;;;7.97;3.72;;;;;;;;;;5097311;28;20039;-75
2022/07/02 06:17:44;;;;;;;6.20;3.42;;;;;;;;;;5112776;28;20366;-76
2022/07/02 06:20:10;;;;;;;5.53;2.83;;;;;;;;;;5106602;28;20703;-83
2022/07/02 06:22:36;;;;;;;8.57;2.58;;;;;;;;;;5107174;28;20028;-79
2022/07/02 06:25:01;;;;;;;3.00;2.22;;;;;;;;;;5133598;28;20022;-79
2022/07/02 06:27:33;;;;;;;7.32;3.63;;;;;;;;;;5128904;28;20046;-80
2022/07/02 06:29:59;;;;;;;10.90;2.78;;;;;;;;;;5119761;28;20556;-78
2022/07/02 06:32:27;;;;;;;4.38;2.45;;;;;;;;;;5117126;28;20035;-78
2022/07/02 06:34:56;;;;;;;6.53;2.00;;;;;;;;;;5121125;27;20091;-78
2022/07/02 06:37:24;;;;;;;4.45;2.00;;;;;;;;;;5139081;27;20481;-77
2022/07/02 06:39:52;;;;;;;2.90;1.90;;;;;;;;;;5122186;27;20114;-78
2022/07/02 06:42:26;;;;;;;3.63;1.77;;;;;;;;;;5123524;27;20059;-79
2022/07/02 06:44:55;;;;;;;2.97;1.73;;;;;;;;;;5124756;27;20057;-80
2022/07/02 06:47:23;;;;;;;5.32;1.90;;;;;;;;;;5143433;27;20051;-79
2022/07/02 06:49:50;;;;;;;12.23;1.80;;;;;;;;;;5121495;27;20039;-76
2022/07/02 06:52:17;;;;;;;9.10;2.20;;;;;;;;;;5121322;27;20214;-78
2022/07/02 06:54:43;;;;;;;3.97;1.90;;;;;;;;;;5138512;27;20469;-76
2022/07/02 06:57:09;;;;;;;5.47;1.67;;;;;;;;;;5141707;27;20124;-78
2022/07/02 06:59:35;;;;;;;3.28;1.77;;;;;;;;;;5140961;27;20060;-76
2022/07/02 07:02:01;;;;;;;3.65;2.00;;;;;;;;;;5136660;27;20035;-76
2022/07/02 07:04:28;;;;;;;5.32;1.70;;;;;;;;;;5137234;27;20035;-76
2022/07/02 07:07:00;;;;;;;3.92;1.52;;;;;;;;;;5117023;28;20132;-77
2022/07/02 07:09:29;;;;;;;3.47;1.52;;;;;;;;;;5101985;28;20110;-76
2022/07/02 07:11:55;;;;;;;4.75;1.55;;;;;;;;;;5106757;28;20122;-78
2022/07/02 07:14:21;;;;;;;2.00;1.45;;;;;;;;;;5118551;28;20063;-75
2022/07/02 07:16:46;;;;;;;3.70;1.40;;;;;;;;;;5116942;27;20391;-76
2022/07/02 07:19:12;;;;;;;3.35;1.75;;;;;;;;;;5121767;27;20031;-76
2022/07/02 07:21:40;;;;;;;4.45;1.65;;;;;;;;;;5136300;27;20126;-75
2022/07/02 07:24:08;;;;;;;3.80;1.25;;;;;;;;;;5135956;27;20031;-75
2022/07/02 07:26:36;;;;;;;2.53;1.45;;;;;;;;;;5137344;27;20027;-75
2022/07/02 07:29:02;;;;;;;3.47;0.93;;;;;;;;;;5118879;27;20446;-75
2022/07/02 07:31:28;;;;;;;3.55;1.30;;;;;;;;;;5118698;27;20031;-76
2022/07/02 07:33:55;;;;;;;4.70;1.60;;;;;;;;;;5119175;27;20084;-77
2022/07/02 07:36:23;;;;;;;3.50;1.48;;;;;;;;;;5121806;27;20027;-78
2022/07/02 07:38:51;;;;;;;4.88;1.25;;;;;;;;;;5132056;27;20050;-83
2022/07/02 07:41:18;;;;;;;4.45;1.23;;;;;;;;;;5119077;28;20503;-83
2022/07/02 07:43:44;;;;;;;3.17;1.50;;;;;;;;;;5102441;28;20485;-81
2022/07/02 07:46:10;;;;;;;2.22;1.15;;;;;;;;;;5119251;28;20039;-80
2022/07/02 07:48:45;;;;;;;5.53;1.15;;;;;;;;;;5117466;28;20134;-79
2022/07/02 07:51:28;;;;;;;2.78;1.30;;;;;;;;;;5114969;28;20032;-80
2022/07/02 07:53:58;;;;;;;4.38;1.30;;;;;;;;;;5115318;28;20050;-81
2022/07/02 07:56:24;;;;;;;1.88;1.23;;;;;;;;;;5100127;28;20031;-80
2022/07/02 07:58:49;;;;;;;3.78;1.70;;;;;;;;;;5101469;28;20373;-80
2022/07/02 08:01:15;;;;;;;3.90;1.35;;;;;;;;;;5101162;28;20556;-78
2022/07/02 08:03:42;;;;;;;1.67;1.08;;;;;;;;;;5117527;28;20110;-80
2022/07/02 08:06:12;;;;;;;3.70;1.10;;;;;;;;;;5149345;27;20018;-79
2022/07/02 08:08:37;;;;;;;4.68;1.13;;;;;;;;;;5140694;27;20035;-77
2022/07/02 08:11:03;;;;;;;2.10;0.95;;;;;;;;;;5159915;27;20452;-79
2022/07/02 08:13:30;;;;;;;4.35;1.15;;;;;;;;;;5140966;27;20122;-83
2022/07/02 08:15:56;;;;;;;1.95;0.88;;;;;;;;;;5140642;27;20038;-78
2022/07/02 08:18:24;;;;;;;3.70;1.70;;;;;;;;;;5160122;27;20617;-78
2022/07/02 08:20:50;;;;;;;7.05;1.50;;;;;;;;;;5143124;27;20476;-78
2022/07/02 08:23:16;;;;;;;3.75;1.20;;;;;;;;;;5142314;27;20125;-77
2022/07/02 08:25:43;;;;;;;4.65;1.40;;;;;;;;;;5158205;27;20391;-78
2022/07/02 08:28:10;;;;;;;6.90;0.90;;;;;;;;;;5141671;27;20030;-78
2022/07/02 08:30:36;;;;;;;4.50;1.20;;;;;;;;;;5141658;27;20027;-78
2022/07/02 08:33:03;;;;;;;3.13;1.15;;;;;;;;;;5159390;27;20073;-78
2022/07/02 08:35:29;;;;;;;5.28;1.90;;;;;;;;;;5127282;27;20511;-78
2022/07/02 08:37:55;;;;;;;3.90;1.40;;;;;;;;;;5116565;28;20048;-78
2022/07/02 08:40:25;;;;;;;4.20;1.20;;;;;;;;;;5134928;27;20061;-78
2022/07/02 08:42:53;;;;;;;4.00;1.17;;;;;;;;;;5116740;28;20083;-78
2022/07/02 08:45:21;;;;;;;5.72;1.15;;;;;;;;;;5131924;27;20082;-77
2022/07/02 08:47:49;;;;;;;2.00;0.95;;;;;;;;;;5115349;28;20111;-77
2022/07/02 08:50:18;;;;;;;3.67;1.10;;;;;;;;;;5132124;27;20035;-77
2022/07/02 08:52:44;;;;;;;2.70;1.17;;;;;;;;;;5132262;27;20073;-77
2022/07/02 08:55:11;;;;;;;6.68;0.90;;;;;;;;;;5113649;28;20067;-77
2022/07/02 08:57:39;;;;;;;6.18;1.20;;;;;;;;;;5115094;28;20039;-78
2022/07/02 09:00:06;;;;;;;3.72;0.80;;;;;;;;;;5130759;27;20031;-78
2022/07/02 09:02:32;;;;;;;3.63;0.98;;;;;;;;;;5115403;28;20024;-78
2022/07/02 09:05:02;;;;;;;2.22;0.80;;;;;;;;;;5110694;27;20039;-77
2022/07/02 09:07:28;;;;;;;2.67;1.13;;;;;;;;;;5116005;28;20043;-77
2022/07/02 09:09:55;;;;;;;1.77;0.93;;;;;;;;;;5115857;28;20028;-77
2022/07/02 09:12:23;;;;;;;1.80;0.63;;;;;;;;;;5115814;28;20028;-78
2022/07/02 09:14:49;;;;;;;2.05;0.80;;;;;;;;;;5098547;28;20031;-78
2022/07/02 09:17:15;;;;;;;3.38;0.70;;;;;;;;;;5116035;28;20035;-77
2022/07/02 09:19:41;;;;;;;1.40;0.60;;;;;;;;;;5097558;28;20126;-77
2022/07/02 09:22:08;;;;;;;2.85;0.88;;;;;;;;;;5096957;28;20131;-77
2022/07/02 09:24:42;;;;;;;1.92;0.70;;;;;;;;;;5097152;28;20039;-77
2022/07/02 09:27:14;;;;;;;1.05;0.57;;;;;;;;;;5096937;28;20500;-77
2022/07/02 09:29:46;;;;;;;2.10;0.80;;;;;;;;;;5115390;28;20028;-77
2022/07/02 09:32:12;;;;;;;4.57;0.88;;;;;;;;;;5113858;28;20586;-77
2022/07/02 09:34:48;;;;;;;1.38;0.70;;;;;;;;;;5118022;27;20035;-77
2022/07/02 09:37:20;;;;;;;2.22;0.80;;;;;;;;;;5138016;27;20034;-77
2022/07/02 09:39:46;;;;;;;1.52;0.63;;;;;;;;;;5137479;27;20034;-77
2022/07/02 09:42:26;;;;;;;3.10;0.80;;;;;;;;;;5154951;27;20139;-77
2022/07/02 09:44:53;;;;;;;1.60;0.65;;;;;;;;;;5138261;27;20046;-77
2022/07/02 09:47:38;;;;;;;2.65;0.70;;;;;;;;;;5154943;27;20034;-77
2022/07/02 09:50:06;;;;;;;2.28;0.93;;;;;;;;;;5155664;27;20115;-77
2022/07/02 09:52:32;;;;;;;4.65;0.70;;;;;;;;;;5155166;27;20034;-77
2022/07/02 09:54:58;;;;;;;2.90;0.50;;;;;;;;;;5155778;27;20083;-77
2022/07/02 09:57:24;;;;;;;3.17;0.88;;;;;;;;;;5138303;27;20771;-78
2022/07/02 09:59:49;;;;;;;5.53;0.60;;;;;;;;;;5156102;27;20027;-77
2022/07/02 10:02:21;;;;;;;2.22;0.70;;;;;;;;;;5155469;27;20133;-77
2022/07/02 10:04:50;;;;;;;1.20;0.60;;;;;;;;;;5148249;27;20121;-77
2022/07/02 10:07:16;;;;;;;2.60;0.93;;;;;;;;;;5135124;27;20039;-78
2022/07/02 10:09:42;;;;;;;4.68;0.88;;;;;;;;;;5135870;27;20107;-77
2022/07/02 10:12:08;;;;;;;4.88;0.82;;;;;;;;;;5136009;27;20038;-77
2022/07/02 10:14:36;;;;;;;2.83;0.68;;;;;;;;;;5118088;27;20027;-78
2022/07/02 10:17:02;;;;;;;3.90;0.98;;;;;;;;;;5134908;27;20038;-77
2022/07/02 10:19:28;;;;;;;2.83;0.73;;;;;;;;;;5136030;27;20031;-78
2022/07/02 10:21:55;;;;;;;1.65;0.80;;;;;;;;;;5117485;27;20396;-78
2022/07/02 10:24:23;;;;;;;3.28;0.90;;;;;;;;;;5135123;27;20054;-77
2022/07/02 10:26:50;;;;;;;2.67;0.88;;;;;;;;;;5117813;27;20035;-77
2022/07/02 10:29:17;;;;;;;1.20;0.60;;;;;;;;;;5136131;27;20038;-78
2022/07/02 10:31:52;;;;;;;3.78;0.68;;;;;;;;;;5135483;28;20080;-78
2022/07/02 10:34:55;;;;;;;1.33;0.55;;;;;;;;;;5134947;27;20541;-78
2022/07/02 10:37:21;;;;;;;1.45;0.55;;;;;;;;;;5133490;28;20586;-78
2022/07/02 10:39:46;;;;;;;2.00;0.65;;;;;;;;;;5133664;28;20408;-78
2022/07/02 10:42:12;;;;;;;2.25;0.93;;;;;;;;;;5132682;28;20027;-78
2022/07/02 10:44:45;;;;;;;2.67;0.90;;;;;;;;;;5133444;27;20480;-77
2022/07/02 10:47:51;;;;;;;2.05;0.60;;;;;;;;;;5117703;28;20047;-77
2022/07/02 10:50:17;;;;;;;1.95;0.80;;;;;;;;;;5117342;28;20480;-77
2022/07/02 10:52:50;;;;;;;1.38;0.60;;;;;;;;;;5134869;28;20036;-77
2022/07/02 10:55:29;;;;;;;3.58;0.70;;;;;;;;;;5137726;27;20480;-81
2022/07/02 10:58:01;;;;;;;1.75;0.60;;;;;;;;;;5120240;28;20050;-81
2022/07/02 11:00:28;;;;;;;0.75;0.57;;;;;;;;;;5119821;28;20031;-81
2022/07/02 11:02:56;;;;;;;3.40;0.77;;;;;;;;;;5120932;27;20042;-81
2022/07/02 11:05:25;;;;;;;2.45;0.70;;;;;;;;;;5132443;28;20038;-78
2022/07/02 11:07:50;;;;;;;5.28;0.70;;;;;;;;;;5099072;28;20031;-80
2022/07/02 11:10:26;;;;;;;3.00;0.60;;;;;;;;;;5116175;28;20493;-79
2022/07/02 11:12:57;;;;;;;1.58;0.60;;;;;;;;;;5102322;28;20067;-82
2022/07/02 11:15:33;;;;;;;1.92;0.38;;;;;;;;;;5116175;27;20039;-79
2022/07/02 11:18:03;;;;;;;0.60;0.43;;;;;;;;;;5119199;27;20113;-79
2022/07/02 11:20:28;;;;;;;3.60;0.70;;;;;;;;;;5121870;27;20031;-78
2022/07/02 11:22:57;;;;;;;3.35;0.47;;;;;;;;;;5139562;27;20042;-78
2022/07/02 11:25:24;;;;;;;2.42;0.90;;;;;;;;;;5121383;27;20035;-78
2022/07/02 11:28:03;;;;;;;1.70;0.50;;;;;;;;;;5138836;27;20058;-78
2022/07/02 11:30:31;;;;;;;3.80;0.40;;;;;;;;;;5137892;27;20497;-78
2022/07/02 11:32:57;;;;;;;3.20;0.68;;;;;;;;;;5119495;27;20042;-77
2022/07/02 11:35:23;;;;;;;2.60;0.57;;;;;;;;;;5118827;27;20046;-77
2022/07/02 11:37:57;;;;;;;0.88;0.43;;;;;;;;;;5118943;27;20047;-77
2022/07/02 11:40:24;;;;;;;0.65;0.43;;;;;;;;;;5139239;27;20046;-77
2022/07/02 11:42:50;;;;;;;0.95;0.43;;;;;;;;;;5137519;27;20102;-77
2022/07/02 11:45:15;;;;;;;0.88;0.50;;;;;;;;;;5138636;27;20092;-77
2022/07/02 11:47:49;;;;;;;0.63;0.43;;;;;;;;;;5137609;27;20039;-77
2022/07/02 11:50:27;;;;;;;1.70;0.47;;;;;;;;;;5120034;27;20035;-77
2022/07/02 11:52:52;;;;;;;3.63;0.47;;;;;;;;;;5120561;27;20035;-77
2022/07/02 11:55:19;;;;;;;1.95;0.63;;;;;;;;;;5120353;27;20031;-77
2022/07/02 11:57:45;;;;;;;1.45;0.50;;;;;;;;;;5120042;27;20031;-77
2022/07/02 12:00:11;;;;;;;2.88;0.73;;;;;;;;;;5137236;27;20042;-77
2022/07/02 12:02:38;;;;;;;12.05;1.05;;;;;;;;;;5136518;27;20038;-77
2022/07/02 12:05:33;;;;;;;12.35;1.42;;;;;;;;;;5120311;27;20030;-78
2022/07/02 12:07:59;;;;;;;4.18;0.70;;;;;;;;;;5125092;27;20130;-79
2022/07/02 12:10:25;;;;;;;2.88;0.55;;;;;;;;;;5119823;27;20445;-78
2022/07/02 12:12:51;;;;;;;0.68;0.32;;;;;;;;;;5137269;27;20404;-78
2022/07/02 12:15:18;;;;;;;3.75;1.33;;;;;;;;;;5112785;27;20062;-78
2022/07/02 12:17:49;;;;;;;1.83;0.40;;;;;;;;;;5118524;28;20377;-78
2022/07/02 12:20:18;;;;;;;2.28;0.77;;;;;;;;;;5117270;28;20039;-78
2022/07/02 12:22:53;;;;;;;2.67;0.63;;;;;;;;;;5117467;28;20043;-78
2022/07/02 12:25:20;;;;;;;1.77;0.50;;;;;;;;;;5116091;28;20085;-79
2022/07/02 12:27:53;;;;;;;1.40;0.60;;;;;;;;;;5099594;28;20032;-78
2022/07/02 12:30:19;;;;;;;1.42;0.60;;;;;;;;;;5098361;28;20070;-78
2022/07/02 12:32:51;;;;;;;2.92;0.22;;;;;;;;;;5116433;28;20032;-78
2022/07/02 12:35:16;;;;;;;2.47;0.50;;;;;;;;;;5115902;27;20032;-78
2022/07/02 12:37:43;;;;;;;5.90;1.08;;;;;;;;;;5115837;28;20062;-78
2022/07/02 12:40:11;;;;;;;1.48;0.73;;;;;;;;;;5125075;27;20031;-78
2022/07/02 12:43:02;;;;;;;1.77;0.55;;;;;;;;;;5130165;27;20403;-78
2022/07/02 12:45:35;;;;;;;0.88;0.52;;;;;;;;;;5100142;27;20134;-78
2022/07/02 12:48:02;;;;;;;1.20;0.47;;;;;;;;;;5115101;27;20099;-78
2022/07/02 12:50:29;;;;;;;1.85;0.52;;;;;;;;;;5109128;27;20023;-78
2022/07/02 12:53:00;;;;;;;0.73;0.57;;;;;;;;;;5128803;27;20399;-78
2022/07/02 12:55:31;;;;;;;1.80;0.88;;;;;;;;;;5122352;27;20035;-78
2022/07/02 12:58:00;;;;;;;2.80;0.60;;;;;;;;;;5131073;27;20050;-78
2022/07/02 13:00:27;;;;;;;4.22;0.47;;;;;;;;;;5111696;27;20027;-78
2022/07/02 13:03:01;;;;;;;8.57;0.82;;;;;;;;;;5121705;27;20103;-78
2022/07/02 13:05:28;;;;;;;;;;;;;;;;;;5109783;27;20031;-78
2022/07/02 13:07:53;;;;;;;2.97;0.68;;;;;;;;;;5125645;27;19908;-78
2022/07/02 13:10:19;;;;;;;0.85;0.30;;;;;;;;;;5128842;27;20122;-78
2022/07/02 13:12:44;;;;;;;2.80;0.90;;;;;;;;;;5124376;27;20031;-78
2022/07/02 13:15:10;;;;;;;3.65;0.50;;;;;;;;;;5121547;27;20032;-78
2022/07/02 13:17:35;;;;;;;1.08;0.40;;;;;;;;;;5117252;27;20059;-77
2022/07/02 13:20:01;;;;;;;1.45;0.40;;;;;;;;;;5115496;28;20120;-77
2022/07/02 13:22:27;;;;;;;1.70;0.38;;;;;;;;;;5096267;28;20380;-77
2022/07/02 13:24:53;;;;;;;8.85;0.73;;;;;;;;;;5096248;28;20126;-77
2022/07/02 13:27:20;;;;;;;1.80;0.60;;;;;;;;;;5096947;28;20511;-77
2022/07/02 13:29:46;;;;;;;2.97;0.43;;;;;;;;;;5096694;28;20034;-77
2022/07/02 13:32:12;;;;;;;1.98;0.52;;;;;;;;;;5113759;28;20039;-77
2022/07/02 13:34:38;;;;;;;1.75;0.50;;;;;;;;;;5113345;28;20282;-77
2022/07/02 13:37:04;;;;;;;1.00;0.60;;;;;;;;;;5114186;27;20043;-79
2022/07/02 13:39:30;;;;;;;1.02;0.57;;;;;;;;;;5139204;27;20442;-79
2022/07/02 13:42:00;;;;;;;4.22;0.95;;;;;;;;;;5112052;27;20053;-77
2022/07/02 13:44:30;;;;;;;6.40;0.52;;;;;;;;;;5121349;27;20038;-77
2022/07/02 13:46:56;;;;;;;1.08;0.55;;;;;;;;;;5116835;27;20046;-77
2022/07/02 13:49:22;;;;;;;1.90;0.43;;;;;;;;;;5117137;27;20465;-77
2022/07/02 13:51:48;;;;;;;0.85;0.45;;;;;;;;;;5134845;27;20023;-77
2022/07/02 13:54:14;;;;;;;7.30;0.80;;;;;;;;;;5106746;27;20039;-77
2022/07/02 13:56:39;;;;;;;2.03;0.60;;;;;;;;;;5120733;27;20027;-77
2022/07/02 13:59:05;;;;;;;3.53;0.73;;;;;;;;;;5121779;27;20404;-77
2022/07/02 14:01:32;;;;;;;1.17;0.70;;;;;;;;;;5122440;27;20031;-77
2022/07/02 14:03:58;;;;;;;0.60;0.50;;;;;;;;;;5110830;28;20028;-77
2022/07/02 14:06:24;;;;;;;1.15;0.73;;;;;;;;;;5118974;27;20023;-77
2022/07/02 14:08:49;;;;;;;1.98;0.88;;;;;;;;;;5124933;27;20523;-77
2022/07/02 14:11:16;;;;;;;0.73;0.47;;;;;;;;;;5105617;27;20539;-77
2022/07/02 14:13:42;;;;;;;5.78;0.60;;;;;;;;;;5108289;28;20072;-77
2022/07/02 14:16:07;;;;;;;3.75;0.63;;;;;;;;;;5117319;28;20059;-77
2022/07/02 14:18:33;;;;;;;1.75;0.70;;;;;;;;;;5116151;27;20035;-77
2022/07/02 14:21:01;;;;;;;0.65;0.60;;;;;;;;;;5120573;27;20062;-77
2022/07/02 14:23:26;;;;;;;3.58;0.80;;;;;;;;;;5099898;27;20033;-76
2022/07/02 14:25:52;;;;;;;4.80;0.52;;;;;;;;;;5106522;27;20114;-77
2022/07/02 14:28:20;;;;;;;3.13;0.75;;;;;;;;;;5125103;27;20038;-77
2022/07/02 14:30:46;;;;;;;6.30;1.10;;;;;;;;;;5126253;27;20377;-77
2022/07/02 14:33:13;;;;;;;2.08;0.80;;;;;;;;;;5102142;28;20030;-77
2022/07/02 14:35:42;;;;;;;4.18;0.50;;;;;;;;;;5118319;27;20077;-77
2022/07/02 14:38:08;;;;;;;1.70;1.05;;;;;;;;;;5133514;27;20085;-77
2022/07/02 14:40:34;;;;;;;4.10;0.90;;;;;;;;;;5132831;28;20070;-77
2022/07/02 14:43:01;;;;;;;1.75;0.70;;;;;;;;;;5134298;27;20032;-77
2022/07/02 14:45:27;;;;;;;2.95;0.60;;;;;;;;;;5132571;28;20647;-77
2022/07/02 14:47:53;;;;;;;1.50;0.65;;;;;;;;;;5115570;28;20023;-77
2022/07/02 14:50:19;;;;;;;1.45;0.60;;;;;;;;;;5134474;28;20042;-77